Time;durP1;ratioP1;P1;durP2;ratioP2;P2;SDS_P1;SDS_P2;PMS_P1;PMS_P2;Temp;Humidity;BMP_temperature;BMP_pressure;BME280_temperature;BME280_humidity;BME280_pressure;Samples;Min_cycle;Max_cycle;Signal;HPM_P1;HPM_P2
2021/06/14 00:02:48;;;;;;;5.35;3.65;;;26.50;37.40;;;;;;20995115;28;20048;-52
2021/06/14 00:12:49;;;;;;;4.88;3.50;;;26.50;37.60;;;;;;20995891;28;20491;-58
2021/06/14 00:22:52;;;;;;;3.67;3.08;;;26.50;37.40;;;;;;20993907;28;20059;-53
2021/06/14 00:32:53;;;;;;;4.82;3.42;;;26.40;37.70;;;;;;20993632;28;20052;-52
2021/06/14 00:42:55;;;;;;;8.85;3.30;;;26.30;38.00;;;;;;20993260;28;20045;-53
2021/06/14 00:52:56;;;;;;;4.57;3.50;;;26.20;38.10;;;;;;20992858;28;20075;-54
2021/06/14 01:02:58;;;;;;;5.07;3.63;;;26.10;38.30;;;;;;20993644;28;20071;-58
2021/06/14 01:13:32;;;;;;;3.42;3.13;;;26.00;38.30;;;;;;21006773;28;20398;-55
2021/06/14 01:23:39;;;;;;;4.65;3.25;;;26.10;38.20;;;;;;21004980;28;20048;-58
2021/06/14 01:33:42;;;;;;;4.68;3.45;;;25.90;38.40;;;;;;21004088;28;20136;-53
2021/06/14 01:43:44;;;;;;;5.00;3.60;;;25.70;38.70;;;;;;21003230;28;20049;-52
2021/06/14 01:54:02;;;;;;;3.50;3.20;;;25.70;38.40;;;;;;21003057;28;20056;-55
2021/06/14 02:04:04;;;;;;;3.53;3.22;;;25.60;38.60;;;;;;21002220;28;20106;-53
2021/06/14 02:14:06;;;;;;;3.97;3.58;;;25.50;38.90;;;;;;21003121;28;20040;-53
2021/06/14 02:24:08;;;;;;;;;;;25.50;38.90;;;;;;21000542;28;20052;-51
2021/06/14 02:34:09;;;;;;;6.60;4.13;;;25.30;39.10;;;;;;20999906;28;20391;-55
2021/06/14 02:44:11;;;;;;;4.50;3.63;;;25.20;40.20;;;;;;20998970;28;20048;-54
2021/06/14 02:54:16;;;;;;;;;;;25.10;40.70;;;;;;20999084;28;20416;-52
2021/06/14 03:04:17;;;;;;;5.22;3.90;;;24.90;41.00;;;;;;20997335;28;19920;-58
2021/06/14 03:14:21;;;;;;;6.53;3.35;;;24.90;41.20;;;;;;20996243;28;20060;-57
2021/06/14 03:24:22;;;;;;;4.10;3.47;;;24.80;41.20;;;;;;20995398;28;20382;-53
2021/06/14 03:34:27;;;;;;;6.23;3.40;;;24.70;41.40;;;;;;20994910;28;20044;-55
2021/06/14 03:44:28;;;;;;;6.47;3.97;;;24.60;41.40;;;;;;20995364;28;20155;-57
2021/06/14 03:54:29;;;;;;;3.83;3.47;;;24.60;41.50;;;;;;20994319;28;20056;-52
2021/06/14 04:04:49;;;;;;;3.50;2.97;;;24.40;41.60;;;;;;20976009;28;20070;-52
2021/06/14 04:14:50;;;;;;;4.10;3.70;;;24.40;41.50;;;;;;20993352;28;20045;-52
2021/06/14 04:24:52;;;;;;;7.63;4.13;;;24.30;41.60;;;;;;20993404;28;20106;-53
2021/06/14 04:34:54;;;;;;;5.50;4.07;;;24.30;41.80;;;;;;20993063;28;20045;-53
2021/06/14 04:44:55;;;;;;;5.20;3.88;;;24.20;41.80;;;;;;20989397;28;20102;-53
2021/06/14 04:54:57;;;;;;;4.37;3.73;;;24.10;41.90;;;;;;21007782;28;20044;-54
2021/06/14 05:04:58;;;;;;;7.10;3.53;;;24.10;41.80;;;;;;21007457;28;20044;-53
2021/06/14 05:14:59;;;;;;;3.97;3.27;;;24.10;41.60;;;;;;21004238;28;20060;-51
2021/06/14 05:25:01;;;;;;;5.68;4.00;;;24.10;41.70;;;;;;21005499;28;20500;-52
2021/06/14 05:35:02;;;;;;;7.00;3.83;;;24.00;41.50;;;;;;21004880;28;20049;-54
2021/06/14 05:45:05;;;;;;;3.77;3.10;;;24.00;41.30;;;;;;21004121;28;20045;-56
2021/06/14 05:55:08;;;;;;;5.95;3.60;;;23.90;41.20;;;;;;21001235;28;20546;-52
2021/06/14 06:05:10;;;;;;;5.28;4.00;;;23.90;41.90;;;;;;21001805;28;20052;-53
2021/06/14 06:15:15;;;;;;;6.72;4.20;;;23.90;42.30;;;;;;21001424;28;20090;-53
2021/06/14 06:25:19;;;;;;;4.30;3.58;;;23.90;42.60;;;;;;21000161;28;20063;-53
2021/06/14 06:35:21;;;;;;;5.90;3.85;;;23.90;42.40;;;;;;20982208;28;20071;-52
2021/06/14 06:45:22;;;;;;;7.47;3.90;;;24.10;42.20;;;;;;20999695;28;20489;-53
2021/06/14 06:55:23;;;;;;;9.73;4.93;;;24.40;41.30;;;;;;20997993;28;20490;-54
2021/06/14 07:05:25;;;;;;;9.77;4.10;;;24.90;40.40;;;;;;20995645;28;20055;-52
2021/06/14 07:15:26;;;;;;;6.50;4.60;;;25.00;40.50;;;;;;20997188;28;20474;-52
2021/06/14 07:25:27;;;;;;;5.60;4.17;;;25.50;39.80;;;;;;20996229;28;20048;-52
2021/06/14 07:35:29;;;;;;;5.27;3.37;;;26.50;38.00;;;;;;20995306;28;20106;-53
2021/06/14 07:45:31;;;;;;;4.97;3.60;;;26.80;37.00;;;;;;20994823;28;20048;-53
2021/06/14 07:55:32;;;;;;;6.00;3.10;;;27.20;35.90;;;;;;20995179;28;20052;-53
2021/06/14 08:05:34;;;;;;;4.70;3.50;;;27.90;34.30;;;;;;20994072;28;20393;-53
2021/06/14 08:15:36;;;;;;;5.43;3.50;;;28.40;33.90;;;;;;21003336;28;20051;-53
2021/06/14 08:25:38;;;;;;;5.05;3.10;;;28.90;33.20;;;;;;21010929;28;20063;-55
2021/06/14 08:35:39;;;;;;;4.93;3.10;;;29.20;33.00;;;;;;20977407;28;20397;-56
2021/06/14 08:45:42;;;;;;;3.30;3.00;;;29.80;31.80;;;;;;20936344;28;20055;-54
2021/06/14 08:55:45;;;;;;;5.45;3.38;;;29.90;31.20;;;;;;20935485;28;20045;-53
2021/06/14 09:05:47;;;;;;;6.20;3.70;;;30.10;31.10;;;;;;20923736;28;20056;-55
2021/06/14 09:15:53;;;;;;;5.40;3.45;;;30.20;31.00;;;;;;20934839;28;20053;-55
2021/06/14 09:25:54;;;;;;;4.13;3.20;;;30.40;30.90;;;;;;20921453;28;20126;-54
2021/06/14 09:36:06;;;;;;;7.93;3.30;;;30.30;30.90;;;;;;20933955;28;20103;-52
2021/06/14 09:46:28;;;;;;;5.03;3.13;;;30.90;30.70;;;;;;20932109;28;20049;-59
2021/06/14 09:56:36;;;;;;;4.40;3.38;;;31.10;29.50;;;;;;20919575;28;20127;-55
2021/06/14 10:06:42;;;;;;;6.55;3.05;;;31.20;29.40;;;;;;20918946;28;20053;-56
2021/06/14 10:16:46;;;;;;;4.85;3.05;;;31.20;29.00;;;;;;20918364;28;20045;-55
2021/06/14 10:26:53;;;;;;;4.78;3.22;;;31.10;29.10;;;;;;20917064;28;20056;-58
2021/06/14 10:36:56;;;;;;;5.20;3.15;;;31.20;29.40;;;;;;20915872;28;20116;-53
2021/06/14 10:46:58;;;;;;;7.38;3.83;;;31.50;29.20;;;;;;20913728;28;20049;-56
2021/06/14 10:57:04;;;;;;;5.00;3.42;;;31.00;30.20;;;;;;20951381;28;20509;-54
2021/06/14 11:07:06;;;;;;;8.32;4.18;;;31.10;29.50;;;;;;20983748;28;20102;-53
2021/06/14 11:17:24;;;;;;;5.55;4.10;;;31.20;29.30;;;;;;20995672;28;20056;-53
2021/06/14 11:27:37;;;;;;;4.82;3.83;;;31.80;29.00;;;;;;20969558;28;20045;-52
2021/06/14 11:37:50;;;;;;;7.50;3.50;;;31.60;29.10;;;;;;20912287;28;20544;-53
2021/06/14 11:47:52;;;;;;;5.55;3.67;;;31.30;29.00;;;;;;20910932;28;20057;-52
2021/06/14 11:57:56;;;;;;;6.57;3.83;;;31.60;28.70;;;;;;20949352;28;20131;-52
2021/06/14 12:07:57;;;;;;;6.93;4.35;;;31.70;28.50;;;;;;20992374;28;20044;-55
2021/06/14 12:17:59;;;;;;;5.82;3.67;;;31.60;28.90;;;;;;20994122;28;20040;-54
2021/06/14 12:28:05;;;;;;;6.18;4.45;;;31.50;28.90;;;;;;20973796;28;20417;-53
2021/06/14 12:38:13;;;;;;;6.70;4.22;;;31.70;28.60;;;;;;20992157;28;20515;-59
2021/06/14 12:48:17;;;;;;;7.43;4.40;;;32.10;28.00;;;;;;20992017;28;20041;-57
2021/06/14 12:58:20;;;;;;;6.25;3.72;;;31.90;28.20;;;;;;20994682;28;20098;-57
2021/06/14 13:08:32;;;;;;;7.15;3.85;;;32.10;27.80;;;;;;20990151;28;20117;-62
2021/06/14 13:18:35;;;;;;;6.82;3.70;;;32.30;27.60;;;;;;21006522;28;20072;-61
2021/06/14 13:28:41;;;;;;;8.18;5.00;;;32.30;27.10;;;;;;21005056;28;20413;-59
2021/06/14 13:38:44;;;;;;;5.25;3.35;;;32.40;27.70;;;;;;21004907;28;20053;-57
2021/06/14 13:48:48;;;;;;;9.23;3.50;;;32.60;27.10;;;;;;21004503;28;20071;-61
2021/06/14 13:58:49;;;;;;;7.50;3.50;;;32.60;26.90;;;;;;21003820;28;20489;-61
2021/06/14 14:08:51;;;;;;;8.75;3.72;;;32.60;26.90;;;;;;21002097;28;20049;-61
2021/06/14 14:18:52;;;;;;;8.48;5.60;;;32.70;27.20;;;;;;21001831;28;20492;-56
2021/06/14 14:28:54;;;;;;;9.30;4.90;;;32.90;26.80;;;;;;21000621;28;20053;-60
2021/06/14 14:39:07;;;;;;;12.32;3.78;;;33.10;26.20;;;;;;20999484;28;20581;-62
2021/06/14 14:49:11;;;;;;;9.15;3.92;;;33.40;25.50;;;;;;20998581;28;20052;-61
2021/06/14 14:59:12;;;;;;;8.10;3.92;;;33.60;24.40;;;;;;20998399;28;20052;-60
2021/06/14 15:09:13;;;;;;;11.50;3.30;;;33.90;23.80;;;;;;20996843;28;20052;-61
2021/06/14 15:19:15;;;;;;;8.68;3.80;;;33.80;24.00;;;;;;20995338;28;20048;-61
2021/06/14 15:29:16;;;;;;;8.32;3.50;;;33.90;24.00;;;;;;20976219;28;20060;-62
2021/06/14 15:39:17;;;;;;;8.88;4.50;;;33.90;24.00;;;;;;20995106;28;20417;-58
2021/06/14 15:49:19;;;;;;;11.77;3.90;;;33.80;24.50;;;;;;20995100;28;20102;-61
2021/06/14 15:59:20;;;;;;;9.00;3.70;;;33.80;24.70;;;;;;20994563;28;20390;-60
2021/06/14 16:09:21;;;;;;;8.73;3.90;;;33.90;24.20;;;;;;20993872;28;20060;-60
2021/06/14 16:19:23;;;;;;;13.52;7.68;;;33.80;24.60;;;;;;20984359;28;20515;-55
2021/06/14 16:29:24;;;;;;;9.98;4.10;;;33.80;24.70;;;;;;20992747;28;20053;-64
2021/06/14 16:39:26;;;;;;;7.75;3.40;;;33.90;24.50;;;;;;21002799;28;20059;-62
2021/06/14 16:49:27;;;;;;;10.95;4.55;;;33.90;24.70;;;;;;20981657;28;20037;-54
2021/06/14 16:59:31;;;;;;;12.52;4.43;;;33.70;24.90;;;;;;20987747;28;20084;-54
2021/06/14 17:09:32;;;;;;;6.15;3.70;;;33.60;24.70;;;;;;20967946;28;20048;-55
2021/06/14 17:19:34;;;;;;;11.02;3.40;;;33.40;25.00;;;;;;21003412;28;20049;-55
2021/06/14 17:29:36;;;;;;;8.60;3.53;;;33.30;24.90;;;;;;20952089;28;20048;-55
2021/06/14 17:39:37;;;;;;;32.65;24.58;;;33.00;25.10;;;;;;21003241;28;20053;-55
2021/06/14 17:49:39;;;;;;;11.88;6.25;;;32.70;25.50;;;;;;21001912;28;20483;-55
2021/06/14 17:59:41;;;;;;;12.02;3.70;;;32.70;25.70;;;;;;21000375;28;20109;-54
2021/06/14 18:09:42;;;;;;;9.40;3.95;;;32.80;25.50;;;;;;20995010;28;20452;-58
2021/06/14 18:19:45;;;;;;;16.58;9.43;;;32.90;25.60;;;;;;20999381;28;20044;-54
2021/06/14 18:29:47;;;;;;;11.10;4.90;;;32.80;26.10;;;;;;20997420;28;20139;-55
2021/06/14 18:39:49;;;;;;;9.70;4.47;;;32.70;26.00;;;;;;20999467;28;20051;-58
2021/06/14 18:49:50;;;;;;;8.95;4.68;;;32.70;26.00;;;;;;20996640;28;20087;-58
2021/06/14 18:59:51;;;;;;;14.90;3.95;;;32.70;25.80;;;;;;20979096;28;20083;-56
2021/06/14 19:09:53;;;;;;;9.55;4.43;;;32.60;26.30;;;;;;20996229;28;20063;-56
2021/06/14 19:19:54;;;;;;;7.68;4.15;;;32.30;26.40;;;;;;20995888;28;20059;-56
2021/06/14 19:29:56;;;;;;;10.80;4.15;;;32.10;26.80;;;;;;20995355;28;20052;-59
2021/06/14 19:39:58;;;;;;;12.35;4.35;;;31.80;27.40;;;;;;20993946;28;20110;-56
2021/06/14 19:49:59;;;;;;;9.27;4.13;;;31.50;27.80;;;;;;20993681;28;20052;-56
2021/06/14 20:00:02;;;;;;;10.93;4.90;;;31.30;28.30;;;;;;20993304;28;20452;-56
2021/06/14 20:10:09;;;;;;;9.25;4.47;;;31.10;28.70;;;;;;21000379;28;20053;-58
2021/06/14 20:20:13;;;;;;;10.63;4.85;;;31.00;29.40;;;;;;21010108;28;20052;-56
2021/06/14 20:30:16;;;;;;;12.50;4.65;;;30.70;31.00;;;;;;21009691;28;20044;-56
2021/06/14 20:40:18;;;;;;;16.48;5.65;;;30.40;32.70;;;;;;21008630;28;20064;-56
2021/06/14 20:50:19;;;;;;;8.98;4.03;;;30.20;32.90;;;;;;21008292;28;20044;-56
2021/06/14 21:00:21;;;;;;;7.85;3.60;;;29.90;33.40;;;;;;21007062;28;20447;-59
2021/06/14 21:10:22;;;;;;;6.63;3.13;;;29.50;34.30;;;;;;21006325;28;20416;-56
2021/06/14 21:20:23;;;;;;;10.43;3.67;;;29.10;35.40;;;;;;20987092;28;20481;-54
2021/06/14 21:30:25;;;;;;;9.43;2.80;;;28.60;35.60;;;;;;20985730;28;20361;-55
2021/06/14 21:40:26;;;;;;;6.50;3.13;;;28.40;35.70;;;;;;21003385;28;20385;-57
2021/06/14 21:50:27;;;;;;;6.15;2.95;;;28.10;36.30;;;;;;21002790;28;20052;-56
2021/06/14 22:00:30;;;;;;;8.60;3.17;;;27.80;37.50;;;;;;21002783;28;20429;-55
2021/06/14 22:10:32;;;;;;;6.55;3.10;;;27.30;38.60;;;;;;21002351;28;20056;-57
2021/06/14 22:20:34;;;;;;;7.35;3.75;;;27.20;39.30;;;;;;21001685;28;20052;-55
2021/06/14 22:30:36;;;;;;;6.00;3.35;;;27.10;39.80;;;;;;21000754;28;20538;-56
2021/06/14 22:40:37;;;;;;;6.30;3.65;;;27.10;40.10;;;;;;20999434;28;20052;-57
2021/06/14 22:50:38;;;;;;;;;;;26.90;40.80;;;;;;20998867;28;20048;-56
2021/06/14 23:00:39;;;;;;;17.63;4.90;;;26.60;41.10;;;;;;20978644;28;19974;-55
2021/06/14 23:10:41;;;;;;;10.75;4.65;;;26.60;41.30;;;;;;20996986;28;20044;-55
2021/06/14 23:20:42;;;;;;;7.72;3.90;;;26.60;41.40;;;;;;20978828;28;20052;-59
2021/06/14 23:30:43;;;;;;;8.77;3.60;;;26.40;41.60;;;;;;20995735;28;20048;-57
2021/06/14 23:40:45;;;;;;;9.82;3.50;;;26.30;41.90;;;;;;20995766;28;20057;-57
2021/06/14 23:50:46;;;;;;;9.45;3.42;;;26.20;42.20;;;;;;20994818;28;20040;-55
